Terminal Aerodrome Forecast
Issued by NWS Charleston, WV

Current Version | Previous Version | Text Only | Print | Product List | Glossary Off
Versions: 1 2 3 4 5 6 7 8 9 10 11 12 13 14 15 16 17 18 19 20 21 22 23 24

000
FTUS41 KRLX 301100
TAFHTS
TAF
KHTS 301132Z 3012/0112 00000KT 1/2SM FG BKN001
     FM301300 VRB03KT 4SM BR SCT010
     FM301400 26006KT P6SM FEW050
     FM302200 29004KT P6SM BKN050
     FM010600 VRB03KT 4SM BR BKN015
     FM010900 VRB03KT 2SM BR OVC010=

USA.gov is the U.S. government's official web portal to all federal, state and local government web resources and services.